Time;durP1;ratioP1;P1;durP2;ratioP2;P2;SDS_P1;SDS_P2;PMS_P1;PMS_P2;Temp;Humidity;BMP_temperature;BMP_pressure;BME280_temperature;BME280_humidity;BME280_pressure;Samples;Min_cycle;Max_cycle;Signal;HPM_P1;HPM_P2
2022/01/29 00:02:22;;;;;;;19.00;9.83;;;;;;;1.16;100.00;97923.47;5071180;28;20197;-84
2022/01/29 00:04:49;;;;;;;15.73;9.67;;;;;;;1.16;100.00;97921.66;5079265;28;20219;-86
2022/01/29 00:07:17;;;;;;;16.07;10.23;;;;;;;1.12;100.00;97920.22;5076465;28;20250;-84
2022/01/29 00:09:45;;;;;;;17.47;10.10;;;;;;;1.12;100.00;97930.88;5084814;28;20216;-84
2022/01/29 00:12:12;;;;;;;17.10;8.97;;;;;;;1.11;100.00;97923.84;5084759;28;20229;-84
2022/01/29 00:14:40;;;;;;;13.60;9.00;;;;;;;1.08;100.00;97924.97;5089952;28;20300;-84
2022/01/29 00:17:08;;;;;;;15.47;9.50;;;;;;;1.03;100.00;97921.00;5087594;28;20212;-84
2022/01/29 00:19:40;;;;;;;15.00;8.83;;;;;;;1.03;100.00;97921.00;5079612;28;20197;-84
2022/01/29 00:22:07;;;;;;;15.40;9.23;;;;;;;1.03;100.00;97921.00;5079890;28;20257;-84
2022/01/29 00:24:36;;;;;;;17.37;8.83;;;;;;;1.04;100.00;97925.38;5079808;28;20224;-84
2022/01/29 00:27:08;;;;;;;17.97;9.90;;;;;;;1.05;100.00;97922.56;5079125;28;20217;-85
2022/01/29 00:29:38;;;;;;;15.60;9.23;;;;;;;1.12;100.00;97928.19;5084329;28;20201;-84
2022/01/29 00:32:06;;;;;;;14.63;9.30;;;;;;;1.04;100.00;97910.25;5077124;28;20232;-83
2022/01/29 00:34:34;;;;;;;15.63;9.43;;;;;;;1.03;100.00;97918.34;5075413;28;20208;-84
2022/01/29 00:37:01;;;;;;;17.43;9.73;;;;;;;0.98;100.00;97910.78;5078183;28;20204;-83
2022/01/29 00:39:29;;;;;;;16.10;9.40;;;;;;;0.97;100.00;97929.53;5082506;28;20211;-85
2022/01/29 00:41:56;;;;;;;18.10;9.70;;;;;;;0.90;100.00;97923.06;5087340;28;20216;-84
2022/01/29 00:44:23;;;;;;;16.67;9.90;;;;;;;0.87;100.00;97928.63;5079745;28;20277;-85
2022/01/29 00:46:50;;;;;;;17.00;10.60;;;;;;;0.84;100.00;97923.59;5081955;28;20340;-84
2022/01/29 00:49:17;;;;;;;15.90;9.80;;;;;;;0.81;100.00;97932.66;5083867;28;20207;-85
2022/01/29 00:51:46;;;;;;;16.77;9.67;;;;;;;0.75;100.00;97934.03;5086543;28;20244;-84
2022/01/29 00:54:13;;;;;;;13.80;9.17;;;;;;;0.68;100.00;97932.03;5080103;28;20272;-85
2022/01/29 00:56:40;;;;;;;15.00;9.77;;;;;;;0.60;100.00;97923.84;5079327;28;20244;-83
2022/01/29 00:59:07;;;;;;;15.03;9.77;;;;;;;0.59;100.00;97920.38;5088963;28;20226;-86
2022/01/29 01:01:34;;;;;;;18.87;9.67;;;;;;;0.53;100.00;97912.91;5079331;28;20228;-84
2022/01/29 01:04:01;;;;;;;16.33;10.30;;;;;;;0.53;100.00;97899.59;5083126;28;20279;-85
2022/01/29 01:06:29;;;;;;;18.53;10.37;;;;;;;0.48;100.00;97900.97;5093226;28;20259;-84
2022/01/29 01:08:57;;;;;;;20.60;10.80;;;;;;;0.44;100.00;97884.44;5085087;28;20208;-84
2022/01/29 01:11:24;;;;;;;17.50;10.63;;;;;;;0.36;100.00;97881.59;5081793;28;20203;-84
2022/01/29 01:13:51;;;;;;;18.83;9.97;;;;;;;0.34;100.00;97881.72;5080304;28;20510;-83
2022/01/29 01:16:18;;;;;;;15.97;9.73;;;;;;;0.30;100.00;97874.97;5080092;28;20205;-83
2022/01/29 01:18:45;;;;;;;17.93;9.13;;;;;;;0.24;100.00;97872.00;5080655;28;20219;-84
2022/01/29 01:21:12;;;;;;;14.03;8.40;;;;;;;0.20;100.00;97854.63;5077461;28;20269;-83
2022/01/29 01:23:40;;;;;;;17.73;9.57;;;;;;;0.19;100.00;97848.47;5080099;28;20202;-84
2022/01/29 01:26:08;;;;;;;13.53;8.10;;;;;;;0.22;100.00;97848.22;5083161;28;20193;-84
2022/01/29 01:28:35;;;;;;;13.87;8.90;;;;;;;0.22;100.00;97848.22;5077366;28;20285;-83
2022/01/29 01:31:03;;;;;;;13.57;7.70;;;;;;;0.27;100.00;97845.16;5080788;28;20212;-84
2022/01/29 01:33:30;;;;;;;13.13;7.90;;;;;;;0.29;100.00;97849.38;5087672;28;20229;-83
2022/01/29 01:36:01;;;;;;;13.07;7.50;;;;;;;0.29;100.00;97848.53;5076886;28;20245;-84
2022/01/29 01:38:35;;;;;;;12.60;7.63;;;;;;;0.40;100.00;97861.78;5080891;28;20214;-84
2022/01/29 01:41:07;;;;;;;14.17;7.67;;;;;;;0.40;100.00;97861.78;5078156;28;20214;-85
2022/01/29 01:43:35;;;;;;;11.80;6.83;;;;;;;0.35;100.00;97855.97;5074619;28;20206;-84
2022/01/29 01:46:03;;;;;;;12.23;7.63;;;;;;;0.45;100.00;97864.88;5074782;28;20211;-84
2022/01/29 01:48:30;;;;;;;12.77;7.17;;;;;;;0.49;100.00;97871.63;5088055;28;20213;-83
2022/01/29 01:50:58;;;;;;;13.27;7.80;;;;;;;0.45;100.00;97864.03;5083760;28;20204;-85
2022/01/29 01:53:26;;;;;;;11.80;7.93;;;;;;;0.45;100.00;97864.88;5082573;28;20220;-84
2022/01/29 01:55:53;;;;;;;11.33;7.60;;;;;;;0.41;100.00;97859.97;5078660;28;20207;-84
2022/01/29 01:58:20;;;;;;;13.40;7.80;;;;;;;0.34;100.00;97857.78;5084002;28;20246;-83
2022/01/29 02:00:48;;;;;;;12.40;7.40;;;;;;;0.35;100.00;97866.63;5080111;28;20209;-84
2022/01/29 02:03:16;;;;;;;13.53;7.27;;;;;;;0.31;100.00;97876.69;5080795;28;20217;-83
2022/01/29 02:05:45;;;;;;;10.50;7.23;;;;;;;0.38;100.00;97871.69;5076141;28;20330;-85
2022/01/29 02:08:14;;;;;;;12.37;7.13;;;;;;;0.39;100.00;97860.09;5074893;28;20202;-83
2022/01/29 02:10:44;;;;;;;12.67;7.30;;;;;;;0.39;100.00;97849.44;5078281;28;20221;-84
2022/01/29 02:13:11;;;;;;;13.57;7.77;;;;;;;0.36;100.00;97847.03;5075108;28;20257;-83
2022/01/29 02:15:39;;;;;;;12.00;7.03;;;;;;;0.40;100.00;97853.78;5078554;28;20196;-83
2022/01/29 02:18:13;;;;;;;11.33;7.20;;;;;;;0.40;100.00;97842.31;5079866;28;20223;-84
2022/01/29 02:20:41;;;;;;;11.13;6.77;;;;;;;0.39;100.00;97833.50;5071414;28;20314;-84
2022/01/29 02:23:09;;;;;;;11.67;7.00;;;;;;;0.43;100.00;97840.22;5084126;28;20204;-83
2022/01/29 02:25:38;;;;;;;12.63;6.97;;;;;;;0.42;100.00;97832.41;5086763;28;20232;-83
2022/01/29 02:28:08;;;;;;;9.43;6.53;;;;;;;0.43;100.00;97834.91;5086686;28;20231;-84
2022/01/29 02:30:38;;;;;;;11.73;7.37;;;;;;;0.39;100.00;97836.16;5079743;28;20547;-85
2022/01/29 02:33:08;;;;;;;10.50;6.37;;;;;;;0.33;100.00;97823.41;5082116;28;20227;-84
2022/01/29 02:35:39;;;;;;;11.33;6.60;;;;;;;0.32;100.00;97814.59;5077699;27;20293;-84
2022/01/29 02:38:06;;;;;;;11.57;7.67;;;;;;;0.31;100.00;97809.41;5085467;28;20199;-84
2022/01/29 02:40:39;;;;;;;10.63;6.50;;;;;;;0.25;100.00;97812.59;5083257;28;20197;-86
2022/01/29 02:43:16;;;;;;;11.33;6.80;;;;;;;0.22;100.00;97812.84;5069973;28;20301;-84
2022/01/29 02:45:43;;;;;;;11.10;7.00;;;;;;;0.13;100.00;97811.81;5090944;28;20208;-83
2022/01/29 02:48:11;;;;;;;10.10;6.47;;;;;;;0.18;100.00;97803.44;5082736;28;20209;-83
2022/01/29 02:50:39;;;;;;;11.63;6.40;;;;;;;0.24;100.00;97802.94;5080380;28;20204;-84
2022/01/29 02:53:07;;;;;;;10.27;6.53;;;;;;;0.20;100.00;97796.19;5086455;28;20339;-83
2022/01/29 02:55:35;;;;;;;8.93;5.43;;;;;;;0.26;100.00;97801.81;5089220;28;20205;-83
2022/01/29 02:58:03;;;;;;;9.33;5.60;;;;;;;0.29;100.00;97809.53;5080619;28;20223;-83
2022/01/29 03:00:30;;;;;;;8.43;5.07;;;;;;;0.29;100.00;97790.94;5073010;28;20312;-84
2022/01/29 03:02:58;;;;;;;7.27;5.00;;;;;;;0.38;100.00;97789.31;5076133;28;20208;-84
2022/01/29 03:05:25;;;;;;;8.77;5.00;;;;;;;0.48;100.00;97778.72;5086767;28;20582;-83
2022/01/29 03:07:52;;;;;;;10.80;5.27;;;;;;;0.49;100.00;97775.94;5089629;28;20212;-83
2022/01/29 03:10:22;;;;;;;6.37;4.50;;;;;;;0.46;100.00;97765.56;5083674;28;20213;-83
2022/01/29 03:12:50;;;;;;;8.90;5.13;;;;;;;0.45;100.00;97758.56;5080528;28;20225;-84
2022/01/29 03:15:17;;;;;;;7.33;4.53;;;;;;;0.45;100.00;97750.59;5083228;28;20208;-84
2022/01/29 03:17:44;;;;;;;7.97;4.63;;;;;;;0.49;100.00;97754.69;5076078;28;20601;-83
2022/01/29 03:20:12;;;;;;;8.23;4.70;;;;;;;0.55;100.00;97759.44;5077256;28;20203;-83
2022/01/29 03:22:39;;;;;;;5.27;3.60;;;;;;;0.49;100.00;97757.34;5083067;28;20199;-83
2022/01/29 03:25:07;;;;;;;6.47;4.03;;;;;;;0.49;100.00;97752.03;5081544;28;20193;-83
2022/01/29 03:27:34;;;;;;;8.67;4.40;;;;;;;0.52;100.00;97748.22;5082584;28;20242;-84
2022/01/29 03:30:04;;;;;;;9.43;4.10;;;;;;;0.60;100.00;97743.94;5078421;28;20203;-83
2022/01/29 03:32:31;;;;;;;7.57;4.27;;;;;;;0.63;100.00;97754.31;5099181;27;20248;-85
2022/01/29 03:34:58;;;;;;;5.00;3.90;;;;;;;0.60;100.00;97746.59;5078838;28;20206;-83
2022/01/29 03:37:26;;;;;;;3.83;3.07;;;;;;;0.64;100.00;97758.66;5084431;28;20216;-83
2022/01/29 03:39:57;;;;;;;5.40;3.80;;;;;;;0.68;100.00;97769.88;5093296;28;20224;-83
2022/01/29 03:42:26;;;;;;;6.57;3.90;;;;;;;0.73;100.00;97778.28;5079013;28;20205;-83
2022/01/29 03:44:54;;;;;;;5.87;3.50;;;;;;;0.75;100.00;97768.34;5078497;28;20243;-84
2022/01/29 03:47:23;;;;;;;5.90;3.70;;;;;;;0.77;100.00;97769.88;5092564;28;20254;-85
2022/01/29 03:49:50;;;;;;;6.30;3.83;;;;;;;0.79;100.00;97766.25;5084252;28;20295;-83
2022/01/29 03:52:17;;;;;;;4.83;3.73;;;;;;;0.75;100.00;97765.69;5088790;28;20227;-83
2022/01/29 03:54:45;;;;;;;6.43;3.80;;;;;;;0.77;100.00;97769.88;5076781;28;20195;-84
2022/01/29 03:57:12;;;;;;;6.70;3.60;;;;;;;0.78;100.00;97765.41;5075505;28;20213;-83
2022/01/29 03:59:39;;;;;;;6.53;3.47;;;;;;;0.81;100.00;97772.28;5076702;28;20201;-84
2022/01/29 04:02:06;;;;;;;4.80;3.60;;;;;;;0.79;100.00;97767.09;5084996;28;20211;-83
2022/01/29 04:04:34;;;;;;;5.60;3.97;;;;;;;0.86;100.00;97767.38;5088896;28;20197;-84
2022/01/29 04:07:06;;;;;;;5.17;3.83;;;;;;;0.82;100.00;97760.66;5089900;28;20227;-84
2022/01/29 04:09:33;;;;;;;6.17;4.47;;;;;;;0.83;100.00;97765.03;5081149;28;20269;-83
2022/01/29 04:12:00;;;;;;;4.77;4.00;;;;;;;0.87;100.00;97771.72;5082026;28;20208;-83
2022/01/29 04:14:33;;;;;;;7.67;4.50;;;;;;;0.86;100.00;97775.38;5085697;28;20292;-83
2022/01/29 04:17:00;;;;;;;6.47;4.20;;;;;;;0.85;100.00;97771.06;5078128;28;20318;-84
2022/01/29 04:19:27;;;;;;;6.37;4.00;;;;;;;0.83;100.00;97765.03;5086378;28;20201;-84
2022/01/29 04:21:56;;;;;;;7.03;4.00;;;;;;;0.83;100.00;97765.84;5082882;28;20200;-85
2022/01/29 04:24:23;;;;;;;5.60;3.70;;;;;;;0.83;100.00;97767.69;5076735;28;20205;-84
2022/01/29 04:26:50;;;;;;;8.17;4.23;;;;;;;0.86;100.00;97773.56;5079827;28;20212;-85
2022/01/29 04:29:18;;;;;;;5.90;3.90;;;;;;;0.85;100.00;97781.69;5077744;28;20207;-83
2022/01/29 04:31:58;;;;;;;6.10;3.73;;;;;;;0.81;100.00;97781.09;5067600;28;20212;-84
2022/01/29 04:34:25;;;;;;;5.03;3.37;;;;;;;0.81;100.00;97791.75;5077959;28;20224;-84
2022/01/29 04:36:52;;;;;;;3.80;2.97;;;;;;;0.77;100.00;97797.47;5081295;28;20207;-83
2022/01/29 04:39:21;;;;;;;8.43;4.00;;;;;;;0.72;100.00;97793.38;5077429;28;20193;-83
2022/01/29 04:41:49;;;;;;;11.40;4.50;;;;;;;0.73;100.00;97789.75;5087218;28;20200;-83
2022/01/29 04:44:17;;;;;;;8.00;4.50;;;;;;;0.75;100.00;97798.44;5076592;28;20208;-83
2022/01/29 04:46:45;;;;;;;7.60;5.17;;;;;;;0.77;100.00;97784.19;5077523;28;20251;-82
2022/01/29 04:49:15;;;;;;;7.97;4.50;;;;;;;0.72;100.00;97795.19;5078964;28;20207;-86
2022/01/29 04:51:42;;;;;;;8.47;4.40;;;;;;;0.65;100.00;97794.91;5079875;28;20202;-84
2022/01/29 04:54:09;;;;;;;6.47;4.17;;;;;;;0.61;100.00;97797.94;5078091;28;20222;-83
2022/01/29 04:56:37;;;;;;;7.57;4.87;;;;;;;0.58;100.00;97804.38;5081311;28;20209;-84
2022/01/29 04:59:04;;;;;;;9.57;4.87;;;;;;;0.59;100.00;97779.50;5078498;28;20203;-84
2022/01/29 05:01:31;;;;;;;6.97;4.60;;;;;;;0.67;100.00;97779.66;5078348;28;20208;-83
2022/01/29 05:03:58;;;;;;;8.07;4.70;;;;;;;0.66;100.00;97790.44;5085057;28;20201;-84
2022/01/29 05:06:25;;;;;;;7.27;4.37;;;;;;;0.68;100.00;97801.78;5076606;28;20345;-83
2022/01/29 05:08:52;;;;;;;7.37;4.60;;;;;;;0.67;100.00;97792.13;5071583;28;20201;-82
2022/01/29 05:11:19;;;;;;;6.20;4.70;;;;;;;0.71;100.00;97791.69;5075217;28;20215;-83
2022/01/29 05:13:48;;;;;;;8.90;5.57;;;;;;;0.66;100.00;97780.63;5079013;28;20246;-84
2022/01/29 05:16:36;;;;;;;7.20;4.47;;;;;;;0.80;100.00;97797.19;5080653;28;20223;-83
2022/01/29 05:27:18;;;;;;;4.17;2.97;;;;;;;0.75;100.00;97801.09;5075511;28;20272;-82
2022/01/29 05:29:46;;;;;;;5.47;3.23;;;;;;;0.76;100.00;97799.28;5079086;28;20201;-83
2022/01/29 05:32:15;;;;;;;4.10;2.83;;;;;;;0.80;100.00;97805.16;5079821;28;20212;-83
2022/01/29 05:34:42;;;;;;;5.30;3.03;;;;;;;0.82;100.00;97803.22;5081557;28;20221;-84
2022/01/29 05:37:09;;;;;;;3.80;3.03;;;;;;;0.77;100.00;97800.13;5077948;28;20223;-83
2022/01/29 05:39:37;;;;;;;6.30;3.77;;;;;;;0.74;100.00;97791.44;5085296;28;20204;-84
2022/01/29 05:42:04;;;;;;;6.67;3.77;;;;;;;0.79;100.00;97788.38;5068698;28;20212;-84
2022/01/29 05:44:31;;;;;;;5.47;3.60;;;;;;;0.82;100.00;97789.91;5077764;28;20317;-84
2022/01/29 05:47:00;;;;;;;5.00;3.40;;;;;;;0.77;100.00;97792.16;5075160;28;20302;-84
2022/01/29 05:49:27;;;;;;;5.83;3.67;;;;;;;0.80;100.00;97797.19;5078845;28;20265;-82
2022/01/29 05:51:54;;;;;;;6.87;4.37;;;;;;;0.82;100.00;97788.09;5087296;28;20281;-84
2022/01/29 05:54:21;;;;;;;8.60;4.80;;;;;;;0.83;100.00;97789.78;5081873;28;20224;-82
2022/01/29 05:56:48;;;;;;;5.23;3.80;;;;;;;0.82;100.00;97790.75;5083904;28;20211;-83
2022/01/29 05:59:15;;;;;;;5.53;3.40;;;;;;;0.83;100.00;97783.63;5085305;28;20204;-83
2022/01/29 06:01:42;;;;;;;6.83;4.00;;;;;;;0.86;100.00;97788.66;5082395;28;20203;-83
2022/01/29 06:04:11;;;;;;;5.23;3.60;;;;;;;0.91;100.00;97789.13;5073522;28;20288;-84
2022/01/29 06:06:38;;;;;;;4.80;3.60;;;;;;;0.88;100.00;97781.41;5075064;28;20300;-83
2022/01/29 06:09:05;;;;;;;4.27;3.30;;;;;;;0.91;100.00;97792.63;5070482;28;20221;-84
2022/01/29 06:11:32;;;;;;;8.00;3.43;;;;;;;0.90;100.00;97798.06;5085933;28;20307;-83
2022/01/29 06:14:00;;;;;;;6.03;3.90;;;;;;;0.91;100.00;97800.59;5081864;28;20228;-83
2022/01/29 06:16:27;;;;;;;5.07;3.63;;;;;;;0.97;100.00;97801.88;5091835;28;20213;-83
2022/01/29 06:18:54;;;;;;;6.00;3.97;;;;;;;0.96;100.00;97794.84;5069111;28;20201;-84
2022/01/29 06:21:22;;;;;;;6.50;3.77;;;;;;;0.93;100.00;97790.69;5078535;28;20194;-84
2022/01/29 06:23:50;;;;;;;9.33;3.57;;;;;;;1.00;100.00;97796.28;5081983;28;20216;-82
2022/01/29 06:26:17;;;;;;;7.27;3.53;;;;;;;1.01;100.00;97782.84;5084334;28;20288;-83
2022/01/29 06:28:44;;;;;;;7.57;4.70;;;;;;;1.01;100.00;97782.84;5084057;28;20207;-83
2022/01/29 06:31:11;;;;;;;5.43;3.57;;;;;;;1.00;100.00;97783.00;5088537;28;20247;-83
2022/01/29 06:33:38;;;;;;;6.33;3.77;;;;;;;1.07;100.00;97782.31;5094465;28;20419;-84
2022/01/29 06:36:06;;;;;;;5.83;3.37;;;;;;;1.01;100.00;97774.88;5078858;28;20225;-83
2022/01/29 06:38:35;;;;;;;5.17;3.33;;;;;;;1.01;100.00;97788.19;5079060;28;20208;-83
2022/01/29 06:41:03;;;;;;;6.10;3.63;;;;;;;0.98;100.00;97776.97;5079985;28;20228;-84
2022/01/29 06:43:30;;;;;;;7.90;4.37;;;;;;;1.05;100.00;97788.72;5084323;28;20206;-85
2022/01/29 06:45:57;;;;;;;7.70;5.63;;;;;;;1.02;100.00;97779.19;5080954;28;20211;-83
2022/01/29 06:48:24;;;;;;;4.73;3.40;;;;;;;1.05;100.00;97781.59;5079173;28;20244;-84
2022/01/29 06:50:51;;;;;;;4.37;3.27;;;;;;;1.12;100.00;97776.56;5094767;28;20288;-84
2022/01/29 06:53:18;;;;;;;5.43;3.87;;;;;;;1.07;100.00;97770.81;5081030;28;20208;-83
2022/01/29 06:55:47;;;;;;;4.80;2.90;;;;;;;1.08;100.00;97769.84;5079903;28;20205;-83
2022/01/29 06:58:14;;;;;;;3.53;3.07;;;;;;;1.11;100.00;97777.53;5079607;28;20295;-83
2022/01/29 07:00:41;;;;;;;4.80;3.00;;;;;;;1.12;100.00;97779.22;5086743;28;20239;-83
2022/01/29 07:03:08;;;;;;;5.97;4.10;;;;;;;1.13;100.00;97776.44;5079930;28;20208;-83
2022/01/29 07:05:35;;;;;;;5.37;3.57;;;;;;;1.07;100.00;97776.13;5082434;28;20229;-83
2022/01/29 07:08:04;;;;;;;6.93;3.73;;;;;;;1.11;100.00;97778.38;5068446;28;20213;-83
2022/01/29 07:10:31;;;;;;;4.37;3.27;;;;;;;1.19;100.00;97780.38;5093142;28;20213;-83
2022/01/29 07:13:00;;;;;;;7.80;4.97;;;;;;;1.16;100.00;97774.47;5083490;28;20235;-84
2022/01/29 07:15:27;;;;;;;16.43;9.17;;;;;;;1.14;100.00;97771.94;5079346;28;20234;-84
2022/01/29 07:17:54;;;;;;;32.97;15.13;;;;;;;1.18;100.00;97784.03;5076131;28;20200;-83
2022/01/29 07:20:22;;;;;;;22.97;11.20;;;;;;;1.18;100.00;97785.84;5070819;28;20248;-83
2022/01/29 07:22:49;;;;;;;15.30;7.57;;;;;;;1.16;100.00;97780.66;5080937;28;20402;-83
2022/01/29 07:25:16;;;;;;;9.27;6.00;;;;;;;1.13;100.00;97775.59;5079763;28;20276;-84
2022/01/29 07:27:43;;;;;;;19.37;7.87;;;;;;;1.18;100.00;97783.19;5071905;28;20232;-83
2022/01/29 07:30:13;;;;;;;42.37;17.33;;;;;;;1.27;100.00;97777.88;5080814;28;20217;-83
2022/01/29 07:32:43;;;;;;;51.37;21.27;;;;;;;1.29;100.00;97783.03;5076077;28;20219;-83
2022/01/29 07:35:10;;;;;;;44.20;18.87;;;;;;;1.34;100.00;97786.16;5078336;28;20224;-83
2022/01/29 07:37:37;;;;;;;17.93;9.50;;;;;;;1.38;100.00;97795.50;5077435;28;20277;-83
2022/01/29 07:40:06;;;;;;;27.83;12.97;;;;;;;1.44;100.00;97795.00;5086363;28;20189;-83
2022/01/29 07:42:33;;;;;;;15.07;7.93;;;;;;;1.45;100.00;97805.47;5078122;28;20201;-84
2022/01/29 07:45:00;;;;;;;7.93;4.20;;;;;;;1.42;100.00;97800.44;5081344;28;20300;-83
2022/01/29 07:47:29;;;;;;;8.37;4.63;;;;;;;1.40;100.00;97794.41;5080961;28;20237;-83
2022/01/29 07:49:56;;;;;;;7.20;4.80;;;;;;;1.45;100.00;97804.63;5078800;28;20213;-83
2022/01/29 07:52:23;;;;;;;5.50;4.57;;;;;;;1.42;100.00;97794.28;5078767;28;20201;-83
2022/01/29 07:54:50;;;;;;;8.00;5.17;;;;;;;1.41;100.00;97804.06;5090281;28;20226;-83
2022/01/29 07:57:17;;;;;;;7.03;4.70;;;;;;;1.44;100.00;97813.63;5082509;28;20201;-83
2022/01/29 07:59:44;;;;;;;7.77;4.70;;;;;;;1.46;100.00;97807.16;5084130;28;20341;-83
2022/01/29 08:02:11;;;;;;;8.90;5.07;;;;;;;1.48;100.00;97805.19;5080015;28;20220;-84
2022/01/29 08:04:40;;;;;;;7.53;4.97;;;;;;;1.48;100.00;97802.53;5081628;28;20219;-84
2022/01/29 08:07:07;;;;;;;8.57;4.60;;;;;;;1.51;100.00;97802.28;5090132;28;20244;-83
2022/01/29 08:09:34;;;;;;;12.50;7.20;;;;;;;1.59;100.00;97803.41;5068030;28;20272;-85
2022/01/29 08:12:01;;;;;;;6.73;4.97;;;;;;;1.65;100.00;97816.16;5074865;28;20208;-82
2022/01/29 08:14:28;;;;;;;11.50;6.23;;;;;;;1.67;100.00;97817.69;5082292;28;20260;-84
2022/01/29 08:16:56;;;;;;;12.27;8.03;;;;;;;1.73;100.00;97829.59;5080974;28;20215;-83
2022/01/29 08:19:23;;;;;;;11.83;6.90;;;;;;;1.80;100.00;97833.41;5072840;28;20213;-83
2022/01/29 08:21:51;;;;;;;10.10;6.33;;;;;;;1.85;100.00;97836.50;5088675;28;20232;-83
2022/01/29 08:24:18;;;;;;;16.57;9.13;;;;;;;1.86;100.00;97812.38;5070629;28;20320;-83
2022/01/29 08:26:45;;;;;;;17.13;9.27;;;;;;;1.94;100.00;97813.50;5072427;28;20202;-86
2022/01/29 08:29:12;;;;;;;14.57;9.40;;;;;;;1.91;100.00;97806.63;5076183;28;20198;-84
2022/01/29 08:31:39;;;;;;;17.17;9.77;;;;;;;2.02;100.00;97808.31;5077853;28;20282;-83
2022/01/29 08:34:06;;;;;;;15.17;9.30;;;;;;;2.10;100.00;97808.44;5084884;28;20228;-83
2022/01/29 08:36:34;;;;;;;16.03;9.17;;;;;;;2.17;100.00;97810.41;5089034;28;20308;-83
2022/01/29 08:39:02;;;;;;;14.00;7.97;;;;;;;2.25;100.00;97815.00;5079103;28;20227;-84
2022/01/29 08:41:29;;;;;;;13.73;8.00;;;;;;;2.38;100.00;97812.91;5077148;28;20258;-83
2022/01/29 08:43:56;;;;;;;12.93;7.00;;;;;;;2.46;100.00;97821.00;5070527;28;20230;-83
2022/01/29 08:46:24;;;;;;;8.87;5.13;;;;;;;2.48;100.00;97824.34;5072553;28;20446;-84
2022/01/29 08:48:51;;;;;;;8.57;5.23;;;;;;;2.50;100.00;97826.88;5084079;28;20204;-85
2022/01/29 08:51:18;;;;;;;8.30;5.50;;;;;;;2.52;100.00;97806.25;5081802;28;20205;-85
2022/01/29 08:53:45;;;;;;;12.13;7.20;;;;;;;2.42;100.00;97784.94;5073863;28;20309;-84
2022/01/29 08:56:15;;;;;;;13.50;7.17;;;;;;;2.43;100.00;97777.78;5071810;28;20212;-83
2022/01/29 08:58:43;;;;;;;11.77;7.90;;;;;;;2.46;100.00;97777.50;5080790;28;20247;-84
2022/01/29 09:01:10;;;;;;;15.73;8.80;;;;;;;2.45;100.00;97765.16;5072325;28;20233;-85
2022/01/29 09:03:37;;;;;;;13.00;7.90;;;;;;;2.52;100.00;97771.59;5066232;28;20213;-84
2022/01/29 09:06:06;;;;;;;15.67;8.10;;;;;;;2.56;100.00;97762.31;5065062;28;20344;-82
2022/01/29 09:08:33;;;;;;;12.50;7.87;;;;;;;2.68;100.00;97777.16;5083194;28;20204;-82
2022/01/29 09:11:00;;;;;;;14.67;7.57;;;;;;;2.76;100.00;97790.59;5070381;28;20331;-82
2022/01/29 09:13:29;;;;;;;12.80;7.63;;;;;;;2.85;100.00;97795.06;5075055;28;20546;-84
2022/01/29 09:15:57;;;;;;;12.50;6.30;;;;;;;2.96;100.00;97805.53;5078102;28;20334;-84
2022/01/29 09:18:25;;;;;;;11.53;5.37;;;;;;;2.96;100.00;97796.69;5084198;28;20292;-83
2022/01/29 09:20:53;;;;;;;10.00;4.97;;;;;;;2.98;100.00;97782.19;5073302;28;20292;-82
2022/01/29 09:23:20;;;;;;;10.73;5.43;;;;;;;3.02;100.00;97799.59;5065841;28;20328;-84
2022/01/29 09:25:47;;;;;;;9.13;4.90;;;;;;;3.03;100.00;97790.63;5068757;28;20296;-84
2022/01/29 09:28:15;;;;;;;10.23;5.03;;;;;;;3.18;100.00;97800.78;5069435;28;20259;-82
2022/01/29 09:30:44;;;;;;;8.30;4.47;;;;;;;3.16;98.85;97813.44;5076328;28;20202;-84
2022/01/29 09:33:12;;;;;;;7.30;3.60;;;;;;;3.17;97.93;97804.44;5082876;28;20372;-84
2022/01/29 09:35:39;;;;;;;8.27;4.00;;;;;;;3.20;96.54;97806.81;5078129;28;20335;-83
2022/01/29 09:38:07;;;;;;;9.73;4.47;;;;;;;3.18;95.04;97792.78;5080589;28;20205;-84
2022/01/29 09:40:34;;;;;;;7.83;3.87;;;;;;;3.17;93.99;97799.09;5072086;28;20208;-85
2022/01/29 09:43:03;;;;;;;7.63;3.33;;;;;;;3.22;94.93;97803.03;5076579;28;20200;-85
2022/01/29 09:45:31;;;;;;;13.83;4.07;;;;;;;3.25;94.95;97794.69;5071388;28;20213;-86
2022/01/29 09:48:02;;;;;;;6.60;3.17;;;;;;;3.34;94.91;97809.81;5068028;28;20286;-84
2022/01/29 09:50:31;;;;;;;6.27;3.50;;;;;;;3.39;91.39;97804.06;5072965;28;20290;-84
2022/01/29 09:52:59;;;;;;;6.30;3.43;;;;;;;3.47;90.17;97798.78;5076540;28;20289;-85
2022/01/29 09:55:27;;;;;;;12.53;3.87;;;;;;;3.61;90.47;97802.78;5074929;28;20248;-85
2022/01/29 09:57:54;;;;;;;13.13;6.10;;;;;;;3.74;89.60;97798.72;5082558;28;20209;-84
2022/01/29 10:00:22;;;;;;;12.80;5.57;;;;;;;3.83;85.22;97799.63;5071114;28;20205;-84
2022/01/29 10:03:19;;;;;;;16.83;6.47;;;;;;;3.90;85.71;97808.75;5079767;28;20198;-84
2022/01/29 10:05:48;;;;;;;17.27;4.90;;;;;;;3.94;84.76;97811.94;5078072;28;20271;-85
2022/01/29 10:08:16;;;;;;;9.20;4.80;;;;;;;4.08;85.04;97814.09;5072930;28;20200;-83
2022/01/29 10:10:45;;;;;;;10.83;5.13;;;;;;;4.12;85.62;97812.78;5088233;28;20209;-84
2022/01/29 10:13:23;;;;;;;11.97;5.30;;;;;;;4.22;84.85;97818.03;5076956;28;20205;-84
2022/01/29 10:15:52;;;;;;;17.33;5.83;;;;;;;4.27;81.76;97805.88;5076432;28;20244;-85
2022/01/29 10:18:24;;;;;;;11.27;3.90;;;;;;;4.45;79.65;97814.69;5069401;28;20208;-84
2022/01/29 10:20:52;;;;;;;15.43;4.13;;;;;;;4.48;77.89;97813.56;5074280;28;20233;-84
2022/01/29 10:23:30;;;;;;;19.43;4.60;;;;;;;4.57;79.65;97808.09;5075604;28;20197;-85
2022/01/29 10:25:58;;;;;;;16.63;3.37;;;;;;;4.68;78.66;97814.19;5073400;28;20190;-85
2022/01/29 10:28:25;;;;;;;9.07;3.10;;;;;;;4.72;77.39;97816.38;5071417;28;20225;-85
2022/01/29 10:31:00;;;;;;;8.97;3.33;;;;;;;4.73;77.26;97806.53;5082107;28;20217;-85
2022/01/29 10:33:30;;;;;;;6.53;3.20;;;;;;;4.74;78.35;97802.88;5080150;28;20242;-85
2022/01/29 10:35:59;;;;;;;8.90;3.00;;;;;;;4.79;78.80;97811.25;5079921;28;20240;-84
2022/01/29 10:38:28;;;;;;;8.23;3.40;;;;;;;4.87;78.72;97803.25;5081528;28;20500;-85
2022/01/29 10:41:18;;;;;;;9.73;3.10;;;;;;;5.01;78.85;97808.03;5078796;28;20220;-85
2022/01/29 10:44:14;;;;;;;7.83;3.37;;;;;;;5.11;76.74;97799.84;5076828;28;20517;-85
2022/01/29 10:46:44;;;;;;;11.33;3.40;;;;;;;5.27;77.35;97800.75;5079016;28;20208;-85
2022/01/29 10:49:22;;;;;;;12.23;3.60;;;;;;;5.51;77.37;97801.88;5100977;28;20246;-83
2022/01/29 10:52:02;;;;;;;6.67;3.30;;;;;;;5.83;76.34;97793.88;5074829;28;20212;-85
2022/01/29 10:54:30;;;;;;;8.03;2.87;;;;;;;6.08;75.23;97784.91;5085574;28;20219;-84
2022/01/29 10:56:59;;;;;;;5.80;3.40;;;;;;;6.28;69.27;97782.72;5077734;28;20205;-86
2022/01/29 10:59:27;;;;;;;8.20;4.17;;;;;;;6.19;67.63;97772.16;5079399;28;20308;-84
2022/01/29 11:01:57;;;;;;;6.93;3.40;;;;;;;6.08;68.53;97763.44;5084140;28;20224;-83
2022/01/29 11:04:27;;;;;;;5.13;3.37;;;;;;;6.05;70.36;97762.91;5084893;28;20306;-86
2022/01/29 11:06:57;;;;;;;11.13;3.53;;;;;;;5.98;73.11;97760.06;5088752;28;20279;-84
2022/01/29 11:09:26;;;;;;;13.50;4.10;;;;;;;5.93;75.41;97749.03;5081079;28;20283;-85
2022/01/29 11:11:55;;;;;;;17.13;4.30;;;;;;;5.84;74.15;97741.94;5082143;28;20200;-85
2022/01/29 11:14:24;;;;;;;9.60;4.60;;;;;;;5.85;73.27;97737.44;5070734;28;20197;-85
2022/01/29 11:16:54;;;;;;;8.20;4.67;;;;;;;6.10;73.55;97727.56;5075975;28;20231;-84
2022/01/29 11:19:23;;;;;;;8.70;5.10;;;;;;;6.53;71.75;97729.88;5082609;28;20212;-86
2022/01/29 11:21:54;;;;;;;8.70;4.20;;;;;;;6.69;66.11;97731.66;5078659;28;20232;-83
2022/01/29 11:24:24;;;;;;;9.53;4.13;;;;;;;6.67;66.79;97714.88;5081781;28;20596;-85
2022/01/29 11:26:51;;;;;;;7.80;4.43;;;;;;;6.75;68.71;97723.75;5081343;28;20209;-85
2022/01/29 11:29:27;;;;;;;17.23;4.90;;;;;;;6.78;68.77;97718.03;5070913;28;20285;-85
2022/01/29 11:32:27;;;;;;;9.30;4.57;;;;;;;6.89;68.29;97713.31;5078828;28;20209;-85
2022/01/29 11:35:06;;;;;;;8.07;4.00;;;;;;;6.95;65.17;97713.44;5077329;28;20237;-85
2022/01/29 11:37:43;;;;;;;11.17;4.30;;;;;;;7.11;63.39;97707.16;5078755;28;20217;-86
2022/01/29 11:40:13;;;;;;;7.27;3.40;;;;;;;7.54;63.27;97695.81;5085181;28;20234;-85
2022/01/29 11:42:53;;;;;;;6.53;3.27;;;;;;;8.23;62.24;97687.72;5081050;28;20209;-85
2022/01/29 11:45:51;;;;;;;8.33;2.80;;;;;;;8.74;56.73;97680.63;5083737;28;20212;-83
2022/01/29 11:48:50;;;;;;;4.17;2.57;;;;;;;8.87;53.22;97669.19;5083702;28;20209;-84